createdAt,value
2019-05-14T00:09:05.489Z,23.10
2019-05-14T00:19:11.443Z,23.10
2019-05-14T00:29:17.046Z,23.10
2019-05-14T00:39:22.507Z,23.00
2019-05-14T00:49:27.960Z,23.00
2019-05-14T00:59:33.349Z,22.90
2019-05-14T01:09:38.773Z,22.90
2019-05-14T01:19:44.239Z,22.90
2019-05-14T01:29:51.350Z,22.80
2019-05-14T01:39:56.834Z,22.80
2019-05-14T01:50:02.297Z,22.80
2019-05-14T02:00:08.636Z,22.70
2019-05-14T02:10:18.399Z,22.70
2019-05-14T02:20:23.803Z,22.70
2019-05-14T02:30:45.876Z,22.70
2019-05-14T02:40:40.142Z,22.70
2019-05-14T02:50:43.533Z,22.70
2019-05-14T03:00:50.696Z,22.60
2019-05-14T03:10:56.200Z,22.60
2019-05-14T03:21:01.586Z,22.60
2019-05-14T03:31:12.168Z,22.60
2019-05-14T03:41:14.783Z,22.60
2019-05-14T03:51:20.617Z,22.60
2019-05-14T04:01:29.374Z,22.50
2019-05-14T04:11:33.331Z,22.50
2019-05-14T04:21:40.062Z,22.50
2019-05-14T04:31:45.800Z,22.50
2019-05-14T04:41:51.271Z,22.50
2019-05-14T04:51:59.488Z,22.40
2019-05-14T05:02:11.803Z,22.50
2019-05-14T05:12:19.675Z,22.50
2019-05-14T05:22:24.340Z,22.70
2019-05-14T05:32:29.815Z,22.90
2019-05-14T05:42:35.247Z,22.90
2019-05-14T05:52:40.800Z,22.90
2019-05-14T06:02:49.015Z,22.80
2019-05-14T06:12:54.631Z,22.50
2019-05-14T06:23:00.053Z,22.60
2019-05-14T06:33:05.517Z,22.70
2019-05-14T06:43:11.183Z,22.70
2019-05-14T06:53:19.488Z,22.70
2019-05-14T07:03:25.031Z,22.80
2019-05-14T07:13:30.561Z,22.80
2019-05-14T07:23:38.506Z,22.80
2019-05-14T07:33:43.374Z,22.90
2019-05-14T07:43:48.886Z,22.90
2019-05-14T07:53:54.416Z,22.90
2019-05-14T08:04:02.159Z,22.90
2019-05-14T08:14:09.078Z,22.90
2019-05-14T08:24:15.343Z,23.00
2019-05-14T08:34:22.769Z,23.00
2019-05-14T08:44:29.409Z,23.00
2019-05-14T08:54:34.940Z,23.00
2019-05-14T09:04:42.990Z,23.00
2019-05-14T09:14:48.385Z,23.00
2019-05-14T09:24:53.983Z,23.00
2019-05-14T09:34:59.424Z,23.10
2019-05-14T09:45:05.376Z,23.00
2019-05-14T09:55:10.853Z,23.10
2019-05-14T10:05:16.258Z,23.10
2019-05-14T10:15:21.696Z,23.10
2019-05-14T10:25:28.747Z,23.10
2019-05-14T10:35:34.275Z,23.10
2019-05-14T10:45:39.768Z,23.10
2019-05-14T10:55:45.261Z,23.10
2019-05-14T11:05:50.697Z,23.10
2019-05-14T11:15:59.621Z,23.10
2019-05-14T11:26:04.299Z,22.80
2019-05-14T11:36:10.355Z,22.50
2019-05-14T11:46:15.806Z,22.50
2019-05-14T11:56:21.311Z,22.70
2019-05-14T12:06:30.484Z,22.80
2019-05-14T12:16:36.374Z,22.80
2019-05-14T12:26:41.711Z,22.90
2019-05-14T12:36:49.303Z,23.00
2019-05-14T12:46:55.517Z,23.10
2019-05-14T12:57:02.397Z,23.10
2019-05-14T13:07:09.156Z,23.20
2019-05-14T13:17:14.795Z,23.10
2019-05-14T13:27:20.131Z,22.70
2019-05-14T13:37:25.636Z,22.60
2019-05-14T13:47:31.137Z,22.60
2019-05-14T13:57:39.479Z,22.20
2019-05-14T14:07:44.761Z,22.20
2019-05-14T14:17:50.496Z,22.50
2019-05-14T14:27:55.977Z,22.70
2019-05-14T14:38:01.485Z,22.70
2019-05-14T14:48:11.536Z,22.70
2019-05-14T14:58:14.064Z,22.70
2019-05-14T15:08:20.244Z,22.70
2019-05-14T15:18:25.897Z,22.80
2019-05-14T15:28:31.374Z,22.80
2019-05-14T15:38:39.370Z,22.70
2019-05-14T15:48:43.959Z,22.80
2019-05-14T15:58:49.407Z,22.70
2019-05-14T16:08:54.972Z,22.70
2019-05-14T16:19:00.332Z,22.70
2019-05-14T16:29:08.704Z,22.70
2019-05-14T16:39:14.309Z,22.70
2019-05-14T16:49:19.939Z,22.70
2019-05-14T16:59:25.370Z,22.70
2019-05-14T17:09:30.775Z,22.70
2019-05-14T17:19:38.427Z,22.70
2019-05-14T17:29:43.307Z,22.70
2019-05-14T17:39:49.067Z,22.60
2019-05-14T17:49:54.557Z,22.60
2019-05-14T18:00:00.428Z,22.60
2019-05-14T18:10:08.821Z,22.60
2019-05-14T18:20:13.949Z,22.70
2019-05-14T18:30:19.637Z,22.70
2019-05-14T18:40:28.047Z,22.70
2019-05-14T18:50:32.296Z,22.70
2019-05-14T19:00:38.821Z,22.70
2019-05-14T19:10:44.511Z,22.60
2019-05-14T19:20:52.233Z,22.60
2019-05-14T19:30:59.661Z,22.60
2019-05-14T19:41:04.832Z,22.60
2019-05-14T19:51:10.272Z,22.60
2019-05-14T20:01:15.712Z,22.50
2019-05-14T20:11:21.078Z,22.50
2019-05-14T20:21:28.620Z,22.50
2019-05-14T20:31:34.188Z,22.50
2019-05-14T20:41:39.644Z,22.50
2019-05-14T20:51:46.096Z,22.50
2019-05-14T21:01:51.568Z,22.50
2019-05-14T21:11:56.958Z,22.40
2019-05-14T21:22:02.355Z,22.40
2019-05-14T21:32:08.314Z,22.40
2019-05-14T21:42:13.846Z,22.30
2019-05-14T21:52:19.293Z,22.30
2019-05-14T22:02:27.697Z,22.40
2019-05-14T22:12:32.063Z,22.50
2019-05-14T22:22:39.136Z,22.50
2019-05-14T22:32:45.000Z,22.60
2019-05-14T22:42:51.011Z,22.60
2019-05-14T22:52:58.427Z,22.60
2019-05-14T23:03:04.274Z,22.60
2019-05-14T23:13:10.088Z,22.70
2019-05-14T23:23:18.450Z,22.70
2019-05-14T23:33:24.045Z,22.70
2019-05-14T23:43:32.240Z,22.70
2019-05-14T23:53:39.428Z,22.70
